Time,TemperatureF,DewpointF,PressureIn,WindDirection,WindDirectionDegrees,WindSpeedMPH,WindSpeedGustMPH,Humidity,HourlyPrecipIn,Conditions,Clouds,dailyrainin,SoftwareType,DateUTC
2013-03-07 00:00:00,24.4,22.9,30.12,NW,315,4.0,10.0,94,0.00,,,-99.99,WeatherLink 5.6,2013-03-07 05:00:00,
2013-03-07 00:30:00,24.4,22.9,30.12,NW,315,4.0,11.0,94,0.00,,,-99.99,WeatherLink 5.6,2013-03-07 05:30:00,
2013-03-07 01:00:00,24.3,22.8,30.12,NW,315,4.0,11.0,94,0.00,,,-99.99,WeatherLink 5.6,2013-03-07 06:00:00,
2013-03-07 01:30:00,24.3,22.8,30.13,NW,315,2.0,12.0,94,0.00,,,-99.99,WeatherLink 5.6,2013-03-07 06:30:00,
2013-03-07 02:00:00,23.9,22.4,30.13,NW,315,3.0,10.0,94,0.00,,,-99.99,WeatherLink 5.6,2013-03-07 07:00:00,
2013-03-07 02:30:00,23.8,22.3,30.13,NW,315,3.0,10.0,94,0.00,,,-99.99,WeatherLink 5.6,2013-03-07 07:30:00,
2013-03-07 03:00:00,23.9,22.4,30.14,NNW,337,3.0,11.0,94,0.00,,,-99.99,WeatherLink 5.6,2013-03-07 08:00:00,
2013-03-07 03:30:00,24.0,22.5,30.14,NW,315,3.0,13.0,94,0.00,,,-99.99,WeatherLink 5.6,2013-03-07 08:30:00,
2013-03-07 04:00:00,23.9,22.4,30.15,NW,315,2.0,11.0,94,0.00,,,-99.99,WeatherLink 5.6,2013-03-07 09:00:00,
2013-03-07 04:30:00,24.0,22.5,30.16,NW,315,1.0,7.0,94,0.00,,,-99.99,WeatherLink 5.6,2013-03-07 09:30:00,
2013-03-07 05:00:00,23.9,22.4,30.17,NW,315,2.0,11.0,94,0.00,,,-99.99,WeatherLink 5.6,2013-03-07 10:00:00,
2013-03-07 05:30:00,23.9,22.4,30.18,NW,315,1.0,6.0,94,0.00,,,-99.99,WeatherLink 5.6,2013-03-07 10:30:00,
2013-03-07 06:00:00,23.9,22.4,30.19,NW,315,1.0,6.0,94,0.00,,,-99.99,WeatherLink 5.6,2013-03-07 11:00:00,
2013-03-07 06:30:00,23.9,22.4,30.19,NW,315,1.0,6.0,94,0.00,,,-99.99,WeatherLink 5.6,2013-03-07 11:30:00,
2013-03-07 07:00:00,23.8,22.3,30.21,NW,315,2.0,12.0,94,0.00,,,-99.99,WeatherLink 5.6,2013-03-07 12:00:00,
2013-03-07 07:30:00,23.9,22.4,30.21,NW,315,1.0,9.0,94,0.00,,,-99.99,WeatherLink 5.6,2013-03-07 12:30:00,
2013-03-07 08:00:00,23.9,22.4,30.21,NW,315,1.0,11.0,94,0.00,,,-99.99,WeatherLink 5.6,2013-03-07 13:00:00,
2013-03-07 08:30:00,23.9,22.4,30.23,NW,315,2.0,10.0,94,0.00,,,-99.99,WeatherLink 5.6,2013-03-07 13:30:00,
2013-03-07 09:00:00,23.9,22.4,30.24,NW,315,3.0,9.0,94,0.00,,,-99.99,WeatherLink 5.6,2013-03-07 14:00:00,
2013-03-07 09:30:00,24.1,22.6,30.24,NW,315,1.0,9.0,94,0.00,,,-99.99,WeatherLink 5.6,2013-03-07 14:30:00,
2013-03-07 10:00:00,23.8,22.3,30.24,NW,315,0.0,7.0,94,0.00,,,-99.99,WeatherLink 5.6,2013-03-07 15:00:00,
2013-03-07 10:30:00,24.2,22.7,30.25,NNW,337,1.0,7.0,94,0.00,,,-99.99,WeatherLink 5.6,2013-03-07 15:30:00,
2013-03-07 11:00:00,24.3,22.8,30.24,North,0,0.0,3.0,94,0.00,,,-99.99,WeatherLink 5.6,2013-03-07 16:00:00,
2013-03-07 11:30:00,24.4,22.9,30.25,NNW,337,0.0,5.0,94,0.00,,,-99.99,WeatherLink 5.6,2013-03-07 16:30:00,
2013-03-07 12:00:00,24.8,23.3,30.24,NW,315,1.0,7.0,94,0.00,,,-99.99,WeatherLink 5.6,2013-03-07 17:00:00,
2013-03-07 12:30:00,25.1,23.6,30.24,WNW,292,2.0,9.0,94,0.00,,,-99.99,WeatherLink 5.6,2013-03-07 17:30:00,
2013-03-07 13:00:00,25.6,24.1,30.24,NNW,337,1.0,7.0,94,0.00,,,-99.99,WeatherLink 5.6,2013-03-07 18:00:00,
2013-03-07 13:30:00,25.9,24.4,30.22,WNW,292,1.0,7.0,94,0.00,,,-99.99,WeatherLink 5.6,2013-03-07 18:30:00,
2013-03-07 14:00:00,26.1,24.6,30.21,NW,315,3.0,11.0,94,0.00,,,-99.99,WeatherLink 5.6,2013-03-07 19:00:00,
2013-03-07 14:30:00,26.3,24.3,30.21,NW,315,4.0,11.0,92,0.00,,,-99.99,WeatherLink 5.6,2013-03-07 19:30:00,
2013-03-07 15:00:00,26.5,24.5,30.22,WNW,292,4.0,12.0,92,0.00,,,-99.99,WeatherLink 5.6,2013-03-07 20:00:00,
2013-03-07 15:30:00,27.1,24.8,30.22,WNW,292,2.0,9.0,91,0.00,,,-99.99,WeatherLink 5.6,2013-03-07 20:30:00,
2013-03-07 16:00:00,27.1,24.6,30.22,WNW,292,2.0,10.0,90,0.00,,,-99.99,WeatherLink 5.6,2013-03-07 21:00:00,
2013-03-07 16:30:00,27.3,24.8,30.22,NW,315,1.0,7.0,90,0.00,,,-99.99,WeatherLink 5.6,2013-03-07 21:30:00,
2013-03-07 17:00:00,27.1,24.6,30.23,NW,315,3.0,9.0,90,0.00,,,-99.99,WeatherLink 5.6,2013-03-07 22:00:00,
2013-03-07 17:30:00,27.0,24.5,30.23,NW,315,2.0,9.0,90,0.00,,,-99.99,WeatherLink 5.6,2013-03-07 22:30:00,
2013-03-07 18:00:00,27.0,24.7,30.24,NNW,337,0.0,5.0,91,0.00,,,-99.99,WeatherLink 5.6,2013-03-07 23:00:00,
2013-03-07 18:30:00,26.8,24.5,30.25,NW,315,1.0,9.0,91,0.00,,,-99.99,WeatherLink 5.6,2013-03-07 23:30:00,
2013-03-07 19:00:00,26.8,24.5,30.25,NW,315,1.0,6.0,91,0.00,,,-99.99,WeatherLink 5.6,2013-03-08 00:00:00,
2013-03-07 19:30:00,26.6,24.3,30.26,NW,315,1.0,5.0,91,0.00,,,-99.99,WeatherLink 5.6,2013-03-08 00:30:00,
2013-03-07 20:00:00,26.5,24.2,30.26,WNW,292,0.0,6.0,91,0.00,,,-99.99,WeatherLink 5.6,2013-03-08 01:00:00,
2013-03-07 20:30:00,26.3,24.0,30.26,WNW,292,1.0,7.0,91,0.00,,,-99.99,WeatherLink 5.6,2013-03-08 01:30:00,
2013-03-07 21:00:00,26.2,24.2,30.26,NW,315,1.0,6.0,92,0.00,,,-99.99,WeatherLink 5.6,2013-03-08 02:00:00,
2013-03-07 21:30:00,26.1,23.8,30.26,NW,315,1.0,7.0,91,0.00,,,-99.99,WeatherLink 5.6,2013-03-08 02:30:00,
2013-03-07 22:00:00,26.1,24.1,30.27,NW,315,1.0,9.0,92,0.00,,,-99.99,WeatherLink 5.6,2013-03-08 03:00:00,
2013-03-07 22:30:00,26.0,24.0,30.27,NW,315,1.0,7.0,92,0.00,,,-99.99,WeatherLink 5.6,2013-03-08 03:30:00,
2013-03-07 23:00:00,25.8,23.8,30.27,NW,315,1.0,6.0,92,0.00,,,-99.99,WeatherLink 5.6,2013-03-08 04:00:00,
2013-03-07 23:30:00,25.7,23.7,30.25,NW,315,2.0,7.0,92,0.00,,,-99.99,WeatherLink 5.6,2013-03-08 04:30:00,